sensor_id;sensor_type;location;lat;lon;timestamp;pressure;altitude;pressure_sealevel;temperature;humidity
47670;BME280;33408;52.062;11.722;2024-03-06T00:00:14;101523.53;;;4.53;100.00
47670;BME280;33408;52.062;11.722;2024-03-06T00:02:40;101516.78;;;4.58;100.00
47670;BME280;33408;52.062;11.722;2024-03-06T00:05:07;101521.91;;;4.58;100.00
47670;BME280;33408;52.062;11.722;2024-03-06T00:07:34;101519.19;;;4.50;100.00
47670;BME280;33408;52.062;11.722;2024-03-06T00:10:01;101522.41;;;4.38;100.00
47670;BME280;33408;52.062;11.722;2024-03-06T00:12:30;101521.66;;;4.46;100.00
47670;BME280;33408;52.062;11.722;2024-03-06T00:14:58;101532.75;;;4.43;100.00
47670;BME280;33408;52.062;11.722;2024-03-06T00:17:24;101543.06;;;4.45;100.00
47670;BME280;33408;52.062;11.722;2024-03-06T00:19:51;101537.81;;;4.38;100.00
47670;BME280;33408;52.062;11.722;2024-03-06T00:22:18;101544.69;;;4.41;100.00
47670;BME280;33408;52.062;11.722;2024-03-06T00:24:44;101543.69;;;4.34;100.00
47670;BME280;33408;52.062;11.722;2024-03-06T00:27:11;101543.56;;;4.27;100.00
47670;BME280;33408;52.062;11.722;2024-03-06T00:29:38;101558.88;;;4.22;100.00
47670;BME280;33408;52.062;11.722;2024-03-06T00:32:06;101559.59;;;4.16;100.00
47670;BME280;33408;52.062;11.722;2024-03-06T00:34:33;101551.06;;;4.17;100.00
47670;BME280;33408;52.062;11.722;2024-03-06T00:36:59;101564.59;;;4.10;100.00
47670;BME280;33408;52.062;11.722;2024-03-06T00:39:26;101561.88;;;4.04;100.00
47670;BME280;33408;52.062;11.722;2024-03-06T00:41:53;101568.56;;;3.97;100.00
47670;BME280;33408;52.062;11.722;2024-03-06T00:44:19;101570.19;;;3.92;100.00
47670;BME280;33408;52.062;11.722;2024-03-06T00:46:46;101570.25;;;3.95;100.00
47670;BME280;33408;52.062;11.722;2024-03-06T00:49:14;101572.72;;;3.91;100.00
47670;BME280;33408;52.062;11.722;2024-03-06T00:51:41;101575.16;;;3.86;100.00
47670;BME280;33408;52.062;11.722;2024-03-06T00:54:07;101575.66;;;3.70;100.00
47670;BME280;33408;52.062;11.722;2024-03-06T00:56:37;101571.38;;;3.70;100.00
47670;BME280;33408;52.062;11.722;2024-03-06T00:59:03;101574.91;;;3.74;100.00
47670;BME280;33408;52.062;11.722;2024-03-06T01:01:30;101574.78;;;3.69;100.00
47670;BME280;33408;52.062;11.722;2024-03-06T01:03:56;101572.94;;;3.63;100.00
47670;BME280;33408;52.062;11.722;2024-03-06T01:06:24;101584.03;;;3.62;100.00
47670;BME280;33408;52.062;11.722;2024-03-06T01:08:51;101585.53;;;3.53;100.00
47670;BME280;33408;52.062;11.722;2024-03-06T01:11:17;101582.06;;;3.52;100.00
47670;BME280;33408;52.062;11.722;2024-03-06T01:13:44;101583.03;;;3.57;100.00
47670;BME280;33408;52.062;11.722;2024-03-06T01:16:11;101588.94;;;3.53;100.00
47670;BME280;33408;52.062;11.722;2024-03-06T01:18:37;101596.97;;;3.69;100.00
47670;BME280;33408;52.062;11.722;2024-03-06T01:21:04;101598.59;;;3.63;100.00
47670;BME280;33408;52.062;11.722;2024-03-06T01:23:32;101597.44;;;3.52;100.00
47670;BME280;33408;52.062;11.722;2024-03-06T01:25:59;101601.06;;;3.60;100.00
47670;BME280;33408;52.062;11.722;2024-03-06T01:28:26;101601.88;;;3.58;100.00
47670;BME280;33408;52.062;11.722;2024-03-06T01:30:52;101597.78;;;3.66;100.00
47670;BME280;33408;52.062;11.722;2024-03-06T01:33:19;101604.75;;;3.72;100.00
47670;BME280;33408;52.062;11.722;2024-03-06T01:35:47;101608.84;;;3.63;100.00
47670;BME280;33408;52.062;11.722;2024-03-06T01:38:13;101606.19;;;3.60;100.00
47670;BME280;33408;52.062;11.722;2024-03-06T01:40:44;101612.84;;;3.52;100.00
47670;BME280;33408;52.062;11.722;2024-03-06T01:43:19;101615.50;;;3.57;100.00
47670;BME280;33408;52.062;11.722;2024-03-06T01:45:47;101615.59;;;3.60;100.00
47670;BME280;33408;52.062;11.722;2024-03-06T01:48:14;101618.13;;;3.58;100.00
47670;BME280;33408;52.062;11.722;2024-03-06T01:50:41;101617.22;;;3.56;100.00
47670;BME280;33408;52.062;11.722;2024-03-06T01:53:08;101620.75;;;3.61;100.00
47670;BME280;33408;52.062;11.722;2024-03-06T01:55:35;101629.09;;;3.53;100.00
47670;BME280;33408;52.062;11.722;2024-03-06T01:58:04;101623.22;;;3.57;100.00
47670;BME280;33408;52.062;11.722;2024-03-06T02:00:32;101625.94;;;3.63;100.00
47670;BME280;33408;52.062;11.722;2024-03-06T02:03:00;101624.03;;;3.56;100.00
47670;BME280;33408;52.062;11.722;2024-03-06T02:05:28;101630.78;;;3.52;100.00
47670;BME280;33408;52.062;11.722;2024-03-06T02:07:57;101619.97;;;3.64;100.00
47670;BME280;33408;52.062;11.722;2024-03-06T02:10:24;101628.06;;;3.46;100.00
47670;BME280;33408;52.062;11.722;2024-03-06T02:12:52;101636.78;;;3.53;100.00
47670;BME280;33408;52.062;11.722;2024-03-06T02:15:20;101633.38;;;3.54;100.00
47670;BME280;33408;52.062;11.722;2024-03-06T02:17:47;101630.06;;;3.58;100.00
47670;BME280;33408;52.062;11.722;2024-03-06T02:20:14;101629.81;;;3.47;100.00
47670;BME280;33408;52.062;11.722;2024-03-06T02:22:42;101630.94;;;3.58;100.00
47670;BME280;33408;52.062;11.722;2024-03-06T02:25:09;101637.69;;;3.55;100.00
47670;BME280;33408;52.062;11.722;2024-03-06T02:27:37;101629.72;;;3.44;100.00
47670;BME280;33408;52.062;11.722;2024-03-06T02:30:04;101633.19;;;3.46;100.00
47670;BME280;33408;52.062;11.722;2024-03-06T02:32:31;101627.03;;;3.39;100.00
47670;BME280;33408;52.062;11.722;2024-03-06T02:34:58;101629.84;;;3.49;100.00
47670;BME280;33408;52.062;11.722;2024-03-06T02:37:24;101628.78;;;3.40;100.00
47670;BME280;33408;52.062;11.722;2024-03-06T02:39:52;101629.72;;;3.44;100.00
47670;BME280;33408;52.062;11.722;2024-03-06T02:42:19;101637.44;;;3.45;100.00
47670;BME280;33408;52.062;11.722;2024-03-06T02:44:46;101637.97;;;3.32;100.00
47670;BME280;33408;52.062;11.722;2024-03-06T02:47:12;101633.94;;;3.42;100.00
47670;BME280;33408;52.062;11.722;2024-03-06T02:49:39;101643.34;;;3.41;100.00
47670;BME280;33408;52.062;11.722;2024-03-06T02:52:05;101646.59;;;3.36;100.00
47670;BME280;33408;52.062;11.722;2024-03-06T02:54:32;101641.19;;;3.25;100.00
47670;BME280;33408;52.062;11.722;2024-03-06T02:57:00;101639.38;;;3.21;100.00
47670;BME280;33408;52.062;11.722;2024-03-06T02:59:27;101639.66;;;3.32;100.00
47670;BME280;33408;52.062;11.722;2024-03-06T03:01:53;101640.09;;;3.15;100.00
47670;BME280;33408;52.062;11.722;2024-03-06T03:04:20;101643.72;;;3.23;100.00
47670;BME280;33408;52.062;11.722;2024-03-06T03:06:46;101648.84;;;3.23;100.00
47670;BME280;33408;52.062;11.722;2024-03-06T03:09:13;101643.84;;;3.28;100.00
47670;BME280;33408;52.062;11.722;2024-03-06T03:11:42;101653.28;;;3.29;100.00
47670;BME280;33408;52.062;11.722;2024-03-06T03:14:10;101648.66;;;3.16;100.00
47670;BME280;33408;52.062;11.722;2024-03-06T03:16:37;101654.72;;;3.19;100.00
47670;BME280;33408;52.062;11.722;2024-03-06T03:19:03;101651.22;;;3.16;100.00
47670;BME280;33408;52.062;11.722;2024-03-06T03:21:30;101657.31;;;3.21;100.00
47670;BME280;33408;52.062;11.722;2024-03-06T03:23:57;101653.59;;;3.09;100.00
47670;BME280;33408;52.062;11.722;2024-03-06T03:26:24;101647.91;;;3.20;100.00
47670;BME280;33408;52.062;11.722;2024-03-06T03:28:50;101653.75;;;3.14;100.00
47670;BME280;33408;52.062;11.722;2024-03-06T03:31:18;101649.50;;;3.16;100.00
47670;BME280;33408;52.062;11.722;2024-03-06T03:33:46;101654.47;;;3.10;100.00
47670;BME280;33408;52.062;11.722;2024-03-06T03:36:13;101658.22;;;3.23;100.00
47670;BME280;33408;52.062;11.722;2024-03-06T03:38:40;101658.19;;;3.21;100.00
47670;BME280;33408;52.062;11.722;2024-03-06T03:41:07;101665.50;;;3.07;100.00
47670;BME280;33408;52.062;11.722;2024-03-06T03:43:34;101670.09;;;3.19;100.00
47670;BME280;33408;52.062;11.722;2024-03-06T03:46:00;101666.84;;;3.26;100.00
47670;BME280;33408;52.062;11.722;2024-03-06T03:48:28;101672.91;;;3.28;100.00
47670;BME280;33408;52.062;11.722;2024-03-06T03:50:55;101675.31;;;3.22;100.00
47670;BME280;33408;52.062;11.722;2024-03-06T03:53:22;101676.78;;;3.14;100.00
47670;BME280;33408;52.062;11.722;2024-03-06T03:55:48;101687.94;;;3.16;100.00
47670;BME280;33408;52.062;11.722;2024-03-06T03:58:16;101686.28;;;3.18;100.00
47670;BME280;33408;52.062;11.722;2024-03-06T04:00:42;101684.53;;;3.16;100.00
47670;BME280;33408;52.062;11.722;2024-03-06T04:03:09;101693.75;;;3.10;100.00
47670;BME280;33408;52.062;11.722;2024-03-06T04:05:37;101692.91;;;3.10;100.00
47670;BME280;33408;52.062;11.722;2024-03-06T04:08:04;101692.72;;;3.04;100.00
47670;BME280;33408;52.062;11.722;2024-03-06T04:10:31;101689.22;;;3.00;100.00
47670;BME280;33408;52.062;11.722;2024-03-06T04:12:59;101694.38;;;3.02;100.00
47670;BME280;33408;52.062;11.722;2024-03-06T04:15:26;101696.22;;;3.06;100.00
47670;BME280;33408;52.062;11.722;2024-03-06T04:17:53;101698.88;;;3.10;100.00
47670;BME280;33408;52.062;11.722;2024-03-06T04:20:19;101704.00;;;3.10;100.00
47670;BME280;33408;52.062;11.722;2024-03-06T04:22:47;101706.50;;;3.09;100.00
47670;BME280;33408;52.062;11.722;2024-03-06T04:25:16;101704.66;;;3.03;100.00
47670;BME280;33408;52.062;11.722;2024-03-06T04:27:43;101704.31;;;2.91;100.00
47670;BME280;33408;52.062;11.722;2024-03-06T04:30:10;101712.34;;;3.03;100.00
47670;BME280;33408;52.062;11.722;2024-03-06T04:32:37;101712.84;;;2.90;100.00
47670;BME280;33408;52.062;11.722;2024-03-06T04:35:05;101712.88;;;2.91;100.00
47670;BME280;33408;52.062;11.722;2024-03-06T04:37:32;101716.31;;;2.92;100.00
47670;BME280;33408;52.062;11.722;2024-03-06T04:40:04;101714.97;;;2.76;100.00
47670;BME280;33408;52.062;11.722;2024-03-06T04:42:33;101713.94;;;2.69;100.00
47670;BME280;33408;52.062;11.722;2024-03-06T04:45:01;101716.50;;;2.69;100.00
47670;BME280;33408;52.062;11.722;2024-03-06T04:47:28;101717.97;;;2.61;100.00
47670;BME280;33408;52.062;11.722;2024-03-06T04:49:55;101724.81;;;2.62;100.00
47670;BME280;33408;52.062;11.722;2024-03-06T04:52:23;101727.00;;;2.50;100.00
47670;BME280;33408;52.062;11.722;2024-03-06T04:54:49;101730.34;;;2.47;100.00
47670;BME280;33408;52.062;11.722;2024-03-06T04:57:17;101733.63;;;2.43;100.00
47670;BME280;33408;52.062;11.722;2024-03-06T04:59:44;101736.84;;;2.37;100.00
47670;BME280;33408;52.062;11.722;2024-03-06T05:02:10;101738.97;;;2.24;100.00
47670;BME280;33408;52.062;11.722;2024-03-06T05:04:37;101741.56;;;2.25;100.00
47670;BME280;33408;52.062;11.722;2024-03-06T05:07:04;101743.69;;;2.37;100.00
47670;BME280;33408;52.062;11.722;2024-03-06T05:09:30;101749.25;;;2.25;100.00
47670;BME280;33408;52.062;11.722;2024-03-06T05:11:57;101756.59;;;2.14;100.00
47670;BME280;33408;52.062;11.722;2024-03-06T05:14:25;101755.81;;;2.17;100.00
47670;BME280;33408;52.062;11.722;2024-03-06T05:16:52;101765.28;;;2.19;100.00
47670;BME280;33408;52.062;11.722;2024-03-06T05:19:18;101762.78;;;2.21;100.00
47670;BME280;33408;52.062;11.722;2024-03-06T05:21:45;101756.50;;;2.11;100.00
47670;BME280;33408;52.062;11.722;2024-03-06T05:24:11;101763.34;;;2.12;100.00
47670;BME280;33408;52.062;11.722;2024-03-06T05:26:38;101768.69;;;2.20;100.00
47670;BME280;33408;52.062;11.722;2024-03-06T05:29:05;101772.66;;;2.10;100.00
47670;BME280;33408;52.062;11.722;2024-03-06T05:31:32;101762.56;;;2.15;100.00
47670;BME280;33408;52.062;11.722;2024-03-06T05:34:00;101764.66;;;2.01;100.00
47670;BME280;33408;52.062;11.722;2024-03-06T05:36:26;101773.19;;;2.00;100.00
47670;BME280;33408;52.062;11.722;2024-03-06T05:38:53;101773.78;;;1.93;100.00
47670;BME280;33408;52.062;11.722;2024-03-06T05:41:19;101776.75;;;1.79;100.00
47670;BME280;33408;52.062;11.722;2024-03-06T05:43:46;101786.06;;;1.53;100.00
47670;BME280;33408;52.062;11.722;2024-03-06T05:46:12;101791.16;;;1.53;100.00
47670;BME280;33408;52.062;11.722;2024-03-06T05:48:42;101797.88;;;1.51;100.00
47670;BME280;33408;52.062;11.722;2024-03-06T05:51:09;101796.22;;;1.52;100.00
47670;BME280;33408;52.062;11.722;2024-03-06T05:53:38;101799.19;;;1.40;100.00
47670;BME280;33408;52.062;11.722;2024-03-06T05:56:07;101803.78;;;1.49;100.00
47670;BME280;33408;52.062;11.722;2024-03-06T05:58:34;101803.94;;;1.53;100.00
47670;BME280;33408;52.062;11.722;2024-03-06T06:01:01;101809.00;;;1.52;100.00
47670;BME280;33408;52.062;11.722;2024-03-06T06:03:28;101815.94;;;1.56;100.00
47670;BME280;33408;52.062;11.722;2024-03-06T06:05:57;101815.66;;;1.71;100.00
47670;BME280;33408;52.062;11.722;2024-03-06T06:08:24;101824.19;;;1.71;100.00
47670;BME280;33408;52.062;11.722;2024-03-06T06:10:50;101828.31;;;1.68;100.00
47670;BME280;33408;52.062;11.722;2024-03-06T06:13:17;101829.88;;;1.64;100.00
47670;BME280;33408;52.062;11.722;2024-03-06T06:15:44;101835.03;;;1.66;100.00
47670;BME280;33408;52.062;11.722;2024-03-06T06:18:11;101833.94;;;1.59;100.00
47670;BME280;33408;52.062;11.722;2024-03-06T06:20:37;101832.91;;;1.54;100.00
47670;BME280;33408;52.062;11.722;2024-03-06T06:23:06;101838.88;;;1.54;100.00
47670;BME280;33408;52.062;11.722;2024-03-06T06:25:33;101846.84;;;1.62;100.00
47670;BME280;33408;52.062;11.722;2024-03-06T06:28:00;101847.03;;;1.44;100.00
47670;BME280;33408;52.062;11.722;2024-03-06T06:30:27;101856.91;;;1.57;100.00
47670;BME280;33408;52.062;11.722;2024-03-06T06:32:53;101857.06;;;1.62;100.00
47670;BME280;33408;52.062;11.722;2024-03-06T06:35:20;101859.03;;;1.69;100.00
47670;BME280;33408;52.062;11.722;2024-03-06T06:37:47;101862.97;;;1.61;100.00
47670;BME280;33408;52.062;11.722;2024-03-06T06:40:18;101866.59;;;1.66;100.00
47670;BME280;33408;52.062;11.722;2024-03-06T06:42:45;101875.19;;;1.68;100.00
47670;BME280;33408;52.062;11.722;2024-03-06T06:45:15;101877.78;;;1.70;100.00
47670;BME280;33408;52.062;11.722;2024-03-06T06:47:41;101874.53;;;1.74;100.00
47670;BME280;33408;52.062;11.722;2024-03-06T06:50:08;101873.25;;;1.62;100.00
47670;BME280;33408;52.062;11.722;2024-03-06T06:52:36;101878.72;;;1.72;100.00
47670;BME280;33408;52.062;11.722;2024-03-06T06:55:06;101881.91;;;1.89;100.00
47670;BME280;33408;52.062;11.722;2024-03-06T06:57:36;101887.66;;;1.83;100.00
47670;BME280;33408;52.062;11.722;2024-03-06T07:00:03;101893.22;;;1.95;100.00
47670;BME280;33408;52.062;11.722;2024-03-06T07:02:36;101888.94;;;1.72;100.00
47670;BME280;33408;52.062;11.722;2024-03-06T07:05:03;101902.63;;;1.74;100.00
47670;BME280;33408;52.062;11.722;2024-03-06T07:07:30;101902.63;;;1.74;100.00
47670;BME280;33408;52.062;11.722;2024-03-06T07:09:57;101901.34;;;1.85;100.00
47670;BME280;33408;52.062;11.722;2024-03-06T07:12:24;101893.66;;;2.08;100.00
47670;BME280;33408;52.062;11.722;2024-03-06T07:14:52;101894.16;;;2.23;100.00
47670;BME280;33408;52.062;11.722;2024-03-06T07:17:18;101901.56;;;2.15;100.00
47670;BME280;33408;52.062;11.722;2024-03-06T07:19:45;101902.56;;;2.19;100.00
47670;BME280;33408;52.062;11.722;2024-03-06T07:22:11;101900.06;;;2.46;100.00
47670;BME280;33408;52.062;11.722;2024-03-06T07:24:38;101904.56;;;2.53;100.00
47670;BME280;33408;52.062;11.722;2024-03-06T07:27:05;101908.31;;;2.63;100.00
47670;BME280;33408;52.062;11.722;2024-03-06T07:29:34;101907.25;;;2.57;100.00
47670;BME280;33408;52.062;11.722;2024-03-06T07:32:02;101912.13;;;2.76;100.00
47670;BME280;33408;52.062;11.722;2024-03-06T07:34:30;101913.91;;;2.51;100.00
47670;BME280;33408;52.062;11.722;2024-03-06T07:36:57;101918.81;;;2.71;100.00
47670;BME280;33408;52.062;11.722;2024-03-06T07:39:25;101923.81;;;2.68;100.00
47670;BME280;33408;52.062;11.722;2024-03-06T07:41:52;101924.13;;;2.77;100.00
47670;BME280;33408;52.062;11.722;2024-03-06T07:44:19;101927.19;;;2.67;100.00
47670;BME280;33408;52.062;11.722;2024-03-06T07:46:46;101929.75;;;2.67;100.00
47670;BME280;33408;52.062;11.722;2024-03-06T07:49:15;101934.56;;;2.83;100.00
47670;BME280;33408;52.062;11.722;2024-03-06T07:51:41;101937.13;;;2.83;100.00
47670;BME280;33408;52.062;11.722;2024-03-06T07:54:08;101933.84;;;2.87;100.00
47670;BME280;33408;52.062;11.722;2024-03-06T07:56:36;101936.41;;;2.87;100.00
47670;BME280;33408;52.062;11.722;2024-03-06T07:59:03;101931.59;;;2.97;100.00
47670;BME280;33408;52.062;11.722;2024-03-06T08:01:30;101936.97;;;3.04;100.00
47670;BME280;33408;52.062;11.722;2024-03-06T08:03:58;101945.97;;;3.20;100.00
47670;BME280;33408;52.062;11.722;2024-03-06T08:06:26;101950.19;;;3.18;100.00
47670;BME280;33408;52.062;11.722;2024-03-06T08:08:54;101953.34;;;3.37;100.00
47670;BME280;33408;52.062;11.722;2024-03-06T08:11:21;101948.66;;;3.52;100.00
47670;BME280;33408;52.062;11.722;2024-03-06T08:13:49;101951.59;;;3.64;100.00
47670;BME280;33408;52.062;11.722;2024-03-06T08:16:16;101951.13;;;3.78;100.00
47670;BME280;33408;52.062;11.722;2024-03-06T08:18:43;101948.84;;;3.87;100.00
47670;BME280;33408;52.062;11.722;2024-03-06T08:21:10;101950.69;;;3.93;100.00
47670;BME280;33408;52.062;11.722;2024-03-06T08:23:37;101953.13;;;4.18;100.00
47670;BME280;33408;52.062;11.722;2024-03-06T08:26:04;101942.84;;;4.18;100.00
47670;BME280;33408;52.062;11.722;2024-03-06T08:28:31;101948.16;;;4.25;100.00
47670;BME280;33408;52.062;11.722;2024-03-06T08:30:57;101952.13;;;4.13;100.00
47670;BME280;33408;52.062;11.722;2024-03-06T08:33:24;101950.50;;;4.15;100.00
47670;BME280;33408;52.062;11.722;2024-03-06T08:35:51;101958.50;;;4.28;100.00
47670;BME280;33408;52.062;11.722;2024-03-06T08:38:17;101948.88;;;4.19;100.00
47670;BME280;33408;52.062;11.722;2024-03-06T08:40:45;101961.94;;;4.27;100.00
47670;BME280;33408;52.062;11.722;2024-03-06T08:43:12;101954.22;;;4.27;100.00
47670;BME280;33408;52.062;11.722;2024-03-06T08:45:41;101968.75;;;4.58;100.00
47670;BME280;33408;52.062;11.722;2024-03-06T08:48:08;101968.09;;;4.67;100.00
47670;BME280;33408;52.062;11.722;2024-03-06T08:50:34;101972.56;;;4.74;100.00
47670;BME280;33408;52.062;11.722;2024-03-06T08:53:01;101970.09;;;4.77;100.00
47670;BME280;33408;52.062;11.722;2024-03-06T08:55:28;101974.00;;;4.96;100.00
47670;BME280;33408;52.062;11.722;2024-03-06T08:57:56;101968.19;;;5.05;100.00
47670;BME280;33408;52.062;11.722;2024-03-06T09:00:23;101970.72;;;5.03;100.00
47670;BME280;33408;52.062;11.722;2024-03-06T09:02:52;101966.69;;;5.13;100.00
47670;BME280;33408;52.062;11.722;2024-03-06T09:05:20;101971.00;;;5.14;100.00
47670;BME280;33408;52.062;11.722;2024-03-06T09:07:47;101962.50;;;5.18;100.00
47670;BME280;33408;52.062;11.722;2024-03-06T09:10:15;101969.03;;;5.40;100.00
47670;BME280;33408;52.062;11.722;2024-03-06T09:12:44;101963.75;;;5.34;100.00
47670;BME280;33408;52.062;11.722;2024-03-06T09:15:14;101968.28;;;5.44;100.00
47670;BME280;33408;52.062;11.722;2024-03-06T09:17:41;101968.63;;;5.61;100.00
47670;BME280;33408;52.062;11.722;2024-03-06T09:20:10;101966.16;;;5.66;100.00
47670;BME280;33408;52.062;11.722;2024-03-06T09:22:37;101969.72;;;5.73;100.00
47670;BME280;33408;52.062;11.722;2024-03-06T09:25:05;101964.72;;;5.79;100.00
47670;BME280;33408;52.062;11.722;2024-03-06T09:27:32;101962.13;;;5.77;100.00
47670;BME280;33408;52.062;11.722;2024-03-06T09:29:58;101972.91;;;6.00;100.00
47670;BME280;33408;52.062;11.722;2024-03-06T09:32:26;101969.59;;;6.06;100.00
47670;BME280;33408;52.062;11.722;2024-03-06T09:34:53;101966.31;;;6.15;100.00
47670;BME280;33408;52.062;11.722;2024-03-06T09:37:20;101970.50;;;6.08;100.00
47670;BME280;33408;52.062;11.722;2024-03-06T09:39:46;101972.19;;;6.06;100.00
47670;BME280;33408;52.062;11.722;2024-03-06T09:42:13;101968.72;;;6.04;100.00
47670;BME280;33408;52.062;11.722;2024-03-06T09:44:41;101962.22;;;6.25;100.00
47670;BME280;33408;52.062;11.722;2024-03-06T09:47:12;101967.50;;;6.31;100.00
47670;BME280;33408;52.062;11.722;2024-03-06T09:49:41;101971.94;;;6.38;100.00
47670;BME280;33408;52.062;11.722;2024-03-06T09:52:10;101968.56;;;6.42;100.00
47670;BME280;33408;52.062;11.722;2024-03-06T09:54:37;101965.91;;;6.37;100.00
47670;BME280;33408;52.062;11.722;2024-03-06T09:57:04;101966.81;;;6.39;100.00
47670;BME280;33408;52.062;11.722;2024-03-06T09:59:31;101962.91;;;6.62;100.00
47670;BME280;33408;52.062;11.722;2024-03-06T10:01:58;101969.69;;;6.56;100.00
47670;BME280;33408;52.062;11.722;2024-03-06T10:04:28;101962.00;;;6.58;100.00
47670;BME280;33408;52.062;11.722;2024-03-06T10:06:57;101966.63;;;6.78;100.00
47670;BME280;33408;52.062;11.722;2024-03-06T10:09:24;101967.25;;;6.64;100.00
47670;BME280;33408;52.062;11.722;2024-03-06T10:11:51;101967.16;;;6.58;100.00
47670;BME280;33408;52.062;11.722;2024-03-06T10:14:19;101971.59;;;6.67;100.00
47670;BME280;33408;52.062;11.722;2024-03-06T10:16:53;101964.09;;;6.81;100.00
47670;BME280;33408;52.062;11.722;2024-03-06T10:19:22;101967.34;;;6.69;100.00
47670;BME280;33408;52.062;11.722;2024-03-06T10:21:50;101969.13;;;6.74;100.00
47670;BME280;33408;52.062;11.722;2024-03-06T10:24:20;101975.03;;;6.67;100.00
47670;BME280;33408;52.062;11.722;2024-03-06T10:26:48;101977.22;;;6.94;100.00
47670;BME280;33408;52.062;11.722;2024-03-06T10:29:16;101974.56;;;6.90;100.00
47670;BME280;33408;52.062;11.722;2024-03-06T10:31:52;101978.81;;;6.86;100.00
47670;BME280;33408;52.062;11.722;2024-03-06T10:34:20;101979.97;;;7.04;100.00
47670;BME280;33408;52.062;11.722;2024-03-06T10:36:50;101982.28;;;6.88;100.00
47670;BME280;33408;52.062;11.722;2024-03-06T10:39:21;101975.72;;;7.07;100.00
47670;BME280;33408;52.062;11.722;2024-03-06T10:41:51;101980.84;;;7.06;100.00
47670;BME280;33408;52.062;11.722;2024-03-06T10:44:20;101988.81;;;7.20;100.00
47670;BME280;33408;52.062;11.722;2024-03-06T10:46:51;101988.56;;;7.04;100.00
47670;BME280;33408;52.062;11.722;2024-03-06T10:49:20;101990.38;;;7.10;100.00
47670;BME280;33408;52.062;11.722;2024-03-06T10:51:49;101987.88;;;7.16;100.00
47670;BME280;33408;52.062;11.722;2024-03-06T10:54:18;101981.13;;;7.24;100.00
47670;BME280;33408;52.062;11.722;2024-03-06T10:56:46;101993.47;;;7.44;100.00
47670;BME280;33408;52.062;11.722;2024-03-06T10:59:13;101987.16;;;7.23;100.00
47670;BME280;33408;52.062;11.722;2024-03-06T11:01:41;101980.44;;;7.35;100.00
47670;BME280;33408;52.062;11.722;2024-03-06T11:04:11;101982.91;;;7.27;100.00
47670;BME280;33408;52.062;11.722;2024-03-06T11:06:40;101987.38;;;7.39;100.00
47670;BME280;33408;52.062;11.722;2024-03-06T11:09:07;101982.38;;;7.49;100.00
47670;BME280;33408;52.062;11.722;2024-03-06T11:11:48;101980.66;;;7.52;100.00
47670;BME280;33408;52.062;11.722;2024-03-06T11:14:16;101985.78;;;7.48;100.00
47670;BME280;33408;52.062;11.722;2024-03-06T11:17:00;101981.56;;;7.52;100.00
47670;BME280;33408;52.062;11.722;2024-03-06T11:19:28;101984.16;;;7.54;100.00
47670;BME280;33408;52.062;11.722;2024-03-06T11:21:55;101979.19;;;7.67;100.00
47670;BME280;33408;52.062;11.722;2024-03-06T11:24:22;101983.28;;;7.53;100.00
47670;BME280;33408;52.062;11.722;2024-03-06T11:26:56;101984.16;;;7.54;100.00
47670;BME280;33408;52.062;11.722;2024-03-06T11:29:23;101980.88;;;7.65;100.00
47670;BME280;33408;52.062;11.722;2024-03-06T11:32:03;101981.88;;;7.77;100.00
47670;BME280;33408;52.062;11.722;2024-03-06T11:34:32;101987.03;;;7.77;100.00
47670;BME280;33408;52.062;11.722;2024-03-06T11:37:02;101989.78;;;7.88;100.00
47670;BME280;33408;52.062;11.722;2024-03-06T11:39:33;101978.59;;;7.89;100.00
47670;BME280;33408;52.062;11.722;2024-03-06T11:42:03;101983.06;;;8.02;100.00
47670;BME280;33408;52.062;11.722;2024-03-06T11:44:34;101978.81;;;8.07;100.00
47670;BME280;33408;52.062;11.722;2024-03-06T11:47:04;101981.22;;;7.92;100.00
47670;BME280;33408;52.062;11.722;2024-03-06T11:49:33;101971.97;;;8.09;100.00
47670;BME280;33408;52.062;11.722;2024-03-06T11:52:01;101986.63;;;8.12;100.00
47670;BME280;33408;52.062;11.722;2024-03-06T11:54:29;101983.34;;;8.25;100.00
47670;BME280;33408;52.062;11.722;2024-03-06T11:56:57;101990.88;;;8.05;100.00
47670;BME280;33408;52.062;11.722;2024-03-06T11:59:26;101990.06;;;8.11;100.00
47670;BME280;33408;52.062;11.722;2024-03-06T12:01:53;101986.75;;;8.24;100.00
47670;BME280;33408;52.062;11.722;2024-03-06T12:04:22;101988.47;;;8.24;100.00
47670;BME280;33408;52.062;11.722;2024-03-06T12:06:49;101985.03;;;8.23;100.00
47670;BME280;33408;52.062;11.722;2024-03-06T12:09:16;101984.34;;;8.38;100.00
47670;BME280;33408;52.062;11.722;2024-03-06T12:11:43;101984.22;;;8.29;100.00
47670;BME280;33408;52.062;11.722;2024-03-06T12:14:13;101975.44;;;8.13;100.00
47670;BME280;33408;52.062;11.722;2024-03-06T12:16:43;101975.69;;;8.33;100.00
47670;BME280;33408;52.062;11.722;2024-03-06T12:19:10;101984.22;;;8.27;100.00
47670;BME280;33408;52.062;11.722;2024-03-06T12:21:39;101978.19;;;8.27;100.00
47670;BME280;33408;52.062;11.722;2024-03-06T12:24:06;101978.00;;;8.13;100.00
47670;BME280;33408;52.062;11.722;2024-03-06T12:26:34;101976.38;;;8.16;100.00
47670;BME280;33408;52.062;11.722;2024-03-06T12:29:04;101982.38;;;8.17;100.00
47670;BME280;33408;52.062;11.722;2024-03-06T12:31:32;101975.59;;;8.25;100.00
47670;BME280;33408;52.062;11.722;2024-03-06T12:34:00;101971.13;;;8.10;100.00
47670;BME280;33408;52.062;11.722;2024-03-06T12:36:28;101978.13;;;8.20;100.00
47670;BME280;33408;52.062;11.722;2024-03-06T12:38:58;101975.41;;;8.11;100.00
47670;BME280;33408;52.062;11.722;2024-03-06T12:41:25;101974.81;;;8.34;100.00